Allensburg, Ohio
Current Conditions -  °F | °C
As of 2:13 PM on Saturday 25 Oct 2014 (Local Time) from KILN Reporting Station
Light Rain Light Rain  
Wind Chill: 67°   Ceiling: Unl
Heat Index: 67°   Visibility: 7mi
Dew Point: 55°   Wind: 18mph
Humidity: 66%   Direction: 250°WSW
Pressure: 29.91"   Gusts: NA
Location:  39.1546°N, 83.569°W
Report Text: KILN 251813Z AUTO 25016KT 7SM -RA SCT018 19/13 A2991 RMK AO2 RAB03 P0000 T01940128
Loading
Personal Weather Stations






























Interactive Weather Map
Tropical Storm Tracking
New forecast layout! Learn more

10-Day Weather Forecast

Advertisements
Track Severe Weather on mobile